Airfield :
LOGIN :

Register | Disclaimer

   EN    FR    IT 

 










Legend :    VFR   Marginal VFR   IFR   Intensive IFR   Very Intensive IFR
Visi :
Ceiling :
>= 8 km
>= 3000ft
5 to 8 km
1000 to 3000 ft
1500m to 5 km
500 to 1000 ft
800 to 1500m
200 to 500 ft
< 800m
< 200 ft
Symbols :   Thunderstorms  Fog  Heavy snow  Heavy precipitations  Wind > 20 kt
SIGMETs :     Misc.  Thunderstorms  Icing  Turbulence  Mountain Waves  Volcanic Ashes







- Airport Elevation : 1487 ft
- IATA code : MUC


EDDM - München Franz Josef Strauss

CURRENT METAR :
  • 270820Z 15006KT 110V180 9999 BKN012 BKN100 19/17 Q1012 BECMG SCT012

EXPIRED METARs :
  • 270750Z 15004KT 110V220 9999 -RA BKN010 BKN100 19/17 Q1012 BECMG SCT010
  • 270720Z 34003KT 240V010 9999 -RA SCT009 SCT045 BKN100 18/17 Q1012 NOSIG
  • 270650Z 31004KT 260V360 9999 -RA SCT009 BKN045 18/16 Q1012 TEMPO BKN010
  • 270620Z 27004KT 210V300 9999 -RA SCT010 SCT026 BKN050 18/16 Q1012 RERA TEMPO BKN010
  • 270550Z 24006KT 200V280 9999 4500SW RA BKN008 BKN040 17/16 Q1012 BECMG NSW BKN012

TAF TAF EDDM
Valid from the 27 at 06:00 until the 28 at 12:00 UTC


270500Z 2706/2812 VRB03KT 9999 BKN010
BECMG 2706/2708 CAVOK
BECMG 2709/2711 08005KT
PROB30
TEMPO 2719/2721 25015G25KT TSRA BKN040CB
BECMG 2804/2806 25006KT
PROB30
TEMPO 2810/2812 27020G30KT TSRA BKN040CB
No reported NOTAMs for that airfield.



MET'MAP, your aeronautical weather chart ! - Copyright ORBIFLY December 2007 - Disclaimer

ORBIFLY MET'MAP TEAM :

Programming & Development : Alexandra Zaïnal
Concept & Development : Baudouin d'Aumeries
Co-Development & Prog : Marc-Olivier Méhu
Technical & hardware support : Manuel Goepfert

Contact : metmap@orbifly.com




SOURCES & CREDITS :

   NOAA